sensor_id;sensor_type;location;lat;lon;timestamp;temperature;humidity
71668;DHT22;59504;54.806;9.640;2023-02-28T00:00:56;4.80;65.40
71668;DHT22;59504;54.806;9.640;2023-02-28T00:03:16;4.80;65.40
71668;DHT22;59504;54.806;9.640;2023-02-28T00:05:35;4.80;65.20
71668;DHT22;59504;54.806;9.640;2023-02-28T00:07:55;4.80;65.20
71668;DHT22;59504;54.806;9.640;2023-02-28T00:10:19;4.80;65.40
71668;DHT22;59504;54.806;9.640;2023-02-28T00:12:40;4.80;65.60
71668;DHT22;59504;54.806;9.640;2023-02-28T00:15:00;4.80;65.70
71668;DHT22;59504;54.806;9.640;2023-02-28T00:17:20;4.80;65.80
71668;DHT22;59504;54.806;9.640;2023-02-28T00:19:41;4.70;65.80
71668;DHT22;59504;54.806;9.640;2023-02-28T00:22:00;4.70;66.00
71668;DHT22;59504;54.806;9.640;2023-02-28T00:24:19;4.70;66.00
71668;DHT22;59504;54.806;9.640;2023-02-28T00:26:38;4.70;66.00
71668;DHT22;59504;54.806;9.640;2023-02-28T00:28:57;4.80;66.00
71668;DHT22;59504;54.806;9.640;2023-02-28T00:31:16;4.80;66.20
71668;DHT22;59504;54.806;9.640;2023-02-28T00:33:35;4.70;66.20
71668;DHT22;59504;54.806;9.640;2023-02-28T00:36:09;4.80;66.30
71668;DHT22;59504;54.806;9.640;2023-02-28T00:38:28;4.70;66.50
71668;DHT22;59504;54.806;9.640;2023-02-28T00:40:48;4.80;66.40
71668;DHT22;59504;54.806;9.640;2023-02-28T00:43:07;4.70;66.50
71668;DHT22;59504;54.806;9.640;2023-02-28T00:45:26;4.80;66.40
71668;DHT22;59504;54.806;9.640;2023-02-28T00:47:45;4.70;66.60
71668;DHT22;59504;54.806;9.640;2023-02-28T00:50:09;4.70;66.80
71668;DHT22;59504;54.806;9.640;2023-02-28T00:52:28;4.70;67.10
71668;DHT22;59504;54.806;9.640;2023-02-28T00:54:47;4.70;67.40
71668;DHT22;59504;54.806;9.640;2023-02-28T00:57:07;4.70;67.30
71668;DHT22;59504;54.806;9.640;2023-02-28T00:59:26;4.60;67.20
71668;DHT22;59504;54.806;9.640;2023-02-28T01:01:46;4.60;67.60
71668;DHT22;59504;54.806;9.640;2023-02-28T01:04:05;4.60;67.50
71668;DHT22;59504;54.806;9.640;2023-02-28T01:06:24;4.60;67.90
71668;DHT22;59504;54.806;9.640;2023-02-28T01:08:43;4.60;67.70
71668;DHT22;59504;54.806;9.640;2023-02-28T01:11:13;4.60;68.10
71668;DHT22;59504;54.806;9.640;2023-02-28T01:13:34;4.70;67.80
71668;DHT22;59504;54.806;9.640;2023-02-28T01:15:55;4.50;68.30
71668;DHT22;59504;54.806;9.640;2023-02-28T01:18:14;4.50;68.80
71668;DHT22;59504;54.806;9.640;2023-02-28T01:20:36;4.50;68.80
71668;DHT22;59504;54.806;9.640;2023-02-28T01:22:56;4.40;69.10
71668;DHT22;59504;54.806;9.640;2023-02-28T01:25:15;4.40;69.40
71668;DHT22;59504;54.806;9.640;2023-02-28T01:27:34;4.40;69.80
71668;DHT22;59504;54.806;9.640;2023-02-28T01:29:54;4.40;69.50
71668;DHT22;59504;54.806;9.640;2023-02-28T01:32:13;4.40;69.80
71668;DHT22;59504;54.806;9.640;2023-02-28T01:34:32;4.40;69.80
71668;DHT22;59504;54.806;9.640;2023-02-28T01:36:51;4.40;69.90
71668;DHT22;59504;54.806;9.640;2023-02-28T01:39:11;4.30;70.10
71668;DHT22;59504;54.806;9.640;2023-02-28T01:41:33;4.30;70.20
71668;DHT22;59504;54.806;9.640;2023-02-28T01:43:57;4.30;69.80
71668;DHT22;59504;54.806;9.640;2023-02-28T01:46:17;4.30;69.60
71668;DHT22;59504;54.806;9.640;2023-02-28T01:51:09;4.30;69.60
71668;DHT22;59504;54.806;9.640;2023-02-28T01:53:33;4.30;69.60
71668;DHT22;59504;54.806;9.640;2023-02-28T01:55:54;4.30;69.50
71668;DHT22;59504;54.806;9.640;2023-02-28T01:58:13;4.20;69.70
71668;DHT22;59504;54.806;9.640;2023-02-28T02:00:33;4.20;69.60
71668;DHT22;59504;54.806;9.640;2023-02-28T02:02:59;4.20;69.60
71668;DHT22;59504;54.806;9.640;2023-02-28T02:05:27;4.20;69.60
71668;DHT22;59504;54.806;9.640;2023-02-28T02:08:00;4.20;69.60
71668;DHT22;59504;54.806;9.640;2023-02-28T02:10:32;4.10;69.50
71668;DHT22;59504;54.806;9.640;2023-02-28T02:18:42;4.10;69.30
71668;DHT22;59504;54.806;9.640;2023-02-28T02:26:39;3.90;68.80
71668;DHT22;59504;54.806;9.640;2023-02-28T02:31:46;3.80;68.70
71668;DHT22;59504;54.806;9.640;2023-02-28T02:34:41;3.80;68.50
71668;DHT22;59504;54.806;9.640;2023-02-28T02:42:01;3.60;68.10
71668;DHT22;59504;54.806;9.640;2023-02-28T02:46:59;3.50;68.10
71668;DHT22;59504;54.806;9.640;2023-02-28T02:49:32;3.40;68.00
71668;DHT22;59504;54.806;9.640;2023-02-28T02:51:53;3.40;68.10
71668;DHT22;59504;54.806;9.640;2023-02-28T02:54:18;3.30;67.90
71668;DHT22;59504;54.806;9.640;2023-02-28T02:56:39;3.30;68.10
71668;DHT22;59504;54.806;9.640;2023-02-28T02:59:04;3.20;68.10
71668;DHT22;59504;54.806;9.640;2023-02-28T03:01:26;3.20;68.20
71668;DHT22;59504;54.806;9.640;2023-02-28T03:03:49;3.20;68.40
71668;DHT22;59504;54.806;9.640;2023-02-28T03:06:08;3.10;68.50
71668;DHT22;59504;54.806;9.640;2023-02-28T03:08:33;3.10;68.50
71668;DHT22;59504;54.806;9.640;2023-02-28T03:10:57;3.00;68.50
71668;DHT22;59504;54.806;9.640;2023-02-28T03:16:32;2.90;68.40
71668;DHT22;59504;54.806;9.640;2023-02-28T03:19:10;2.90;68.30
71668;DHT22;59504;54.806;9.640;2023-02-28T03:21:50;2.80;68.30
71668;DHT22;59504;54.806;9.640;2023-02-28T03:24:19;2.80;68.20
71668;DHT22;59504;54.806;9.640;2023-02-28T03:26:54;2.70;68.20
71668;DHT22;59504;54.806;9.640;2023-02-28T03:29:22;2.70;68.30
71668;DHT22;59504;54.806;9.640;2023-02-28T03:31:58;2.70;68.30
71668;DHT22;59504;54.806;9.640;2023-02-28T03:34:34;2.60;68.20
71668;DHT22;59504;54.806;9.640;2023-02-28T03:36:59;2.50;68.10
71668;DHT22;59504;54.806;9.640;2023-02-28T03:39:23;2.50;68.10
71668;DHT22;59504;54.806;9.640;2023-02-28T03:44:18;2.40;67.90
71668;DHT22;59504;54.806;9.640;2023-02-28T03:46:46;2.30;67.80
71668;DHT22;59504;54.806;9.640;2023-02-28T03:49:20;2.30;67.90
71668;DHT22;59504;54.806;9.640;2023-02-28T03:51:41;2.20;68.00
71668;DHT22;59504;54.806;9.640;2023-02-28T03:54:06;2.20;68.00
71668;DHT22;59504;54.806;9.640;2023-02-28T03:56:42;2.10;68.00
71668;DHT22;59504;54.806;9.640;2023-02-28T03:59:09;2.10;68.10
71668;DHT22;59504;54.806;9.640;2023-02-28T04:01:40;2.00;67.80
71668;DHT22;59504;54.806;9.640;2023-02-28T04:04:00;2.00;67.80
71668;DHT22;59504;54.806;9.640;2023-02-28T04:06:22;1.90;67.70
71668;DHT22;59504;54.806;9.640;2023-02-28T04:08:41;1.90;67.80
71668;DHT22;59504;54.806;9.640;2023-02-28T04:11:04;1.80;68.50
71668;DHT22;59504;54.806;9.640;2023-02-28T04:13:25;1.80;67.90
71668;DHT22;59504;54.806;9.640;2023-02-28T04:15:44;1.70;68.00
71668;DHT22;59504;54.806;9.640;2023-02-28T04:18:03;1.70;68.10
71668;DHT22;59504;54.806;9.640;2023-02-28T04:20:22;1.60;68.30
71668;DHT22;59504;54.806;9.640;2023-02-28T04:22:42;1.60;68.40
71668;DHT22;59504;54.806;9.640;2023-02-28T04:25:01;1.50;68.40
71668;DHT22;59504;54.806;9.640;2023-02-28T04:27:21;1.50;68.80
71668;DHT22;59504;54.806;9.640;2023-02-28T04:29:40;1.50;68.90
71668;DHT22;59504;54.806;9.640;2023-02-28T04:32:04;1.50;69.20
71668;DHT22;59504;54.806;9.640;2023-02-28T04:34:23;1.50;69.50
71668;DHT22;59504;54.806;9.640;2023-02-28T04:36:43;1.40;69.60
71668;DHT22;59504;54.806;9.640;2023-02-28T04:39:03;1.40;69.60
71668;DHT22;59504;54.806;9.640;2023-02-28T04:41:23;1.40;69.60
71668;DHT22;59504;54.806;9.640;2023-02-28T04:43:43;1.30;69.70
71668;DHT22;59504;54.806;9.640;2023-02-28T04:46:04;1.30;69.80
71668;DHT22;59504;54.806;9.640;2023-02-28T04:48:25;1.30;69.80
71668;DHT22;59504;54.806;9.640;2023-02-28T04:50:44;1.30;69.90
71668;DHT22;59504;54.806;9.640;2023-02-28T04:53:03;1.20;70.00
71668;DHT22;59504;54.806;9.640;2023-02-28T04:55:22;1.20;70.00
71668;DHT22;59504;54.806;9.640;2023-02-28T04:57:41;1.20;70.10
71668;DHT22;59504;54.806;9.640;2023-02-28T05:00:01;1.20;70.00
71668;DHT22;59504;54.806;9.640;2023-02-28T05:02:20;1.20;70.20
71668;DHT22;59504;54.806;9.640;2023-02-28T05:04:40;1.10;70.10
71668;DHT22;59504;54.806;9.640;2023-02-28T05:06:59;1.10;70.10
71668;DHT22;59504;54.806;9.640;2023-02-28T05:09:18;1.10;70.10
71668;DHT22;59504;54.806;9.640;2023-02-28T05:11:39;1.10;70.10
71668;DHT22;59504;54.806;9.640;2023-02-28T05:13:58;1.00;70.20
71668;DHT22;59504;54.806;9.640;2023-02-28T05:16:18;1.00;70.40
71668;DHT22;59504;54.806;9.640;2023-02-28T05:18:38;1.00;70.60
71668;DHT22;59504;54.806;9.640;2023-02-28T05:20:57;1.00;70.80
71668;DHT22;59504;54.806;9.640;2023-02-28T05:23:17;0.90;71.00
71668;DHT22;59504;54.806;9.640;2023-02-28T05:25:39;0.90;71.00
71668;DHT22;59504;54.806;9.640;2023-02-28T05:27:59;0.90;71.20
71668;DHT22;59504;54.806;9.640;2023-02-28T05:30:18;0.90;71.00
71668;DHT22;59504;54.806;9.640;2023-02-28T05:32:37;0.90;70.80
71668;DHT22;59504;54.806;9.640;2023-02-28T05:34:57;0.90;70.80
71668;DHT22;59504;54.806;9.640;2023-02-28T05:37:16;0.90;70.80
71668;DHT22;59504;54.806;9.640;2023-02-28T05:39:35;0.80;70.80
71668;DHT22;59504;54.806;9.640;2023-02-28T05:41:54;0.80;70.80
71668;DHT22;59504;54.806;9.640;2023-02-28T05:44:15;0.80;70.80
71668;DHT22;59504;54.806;9.640;2023-02-28T05:46:34;0.70;70.70
71668;DHT22;59504;54.806;9.640;2023-02-28T05:48:53;0.70;70.80
71668;DHT22;59504;54.806;9.640;2023-02-28T05:51:15;0.70;70.80
71668;DHT22;59504;54.806;9.640;2023-02-28T05:53:35;0.70;70.80
71668;DHT22;59504;54.806;9.640;2023-02-28T05:55:54;0.70;70.80
71668;DHT22;59504;54.806;9.640;2023-02-28T05:58:13;0.60;70.90
71668;DHT22;59504;54.806;9.640;2023-02-28T06:00:32;0.60;70.90
71668;DHT22;59504;54.806;9.640;2023-02-28T06:02:51;0.60;71.00
71668;DHT22;59504;54.806;9.640;2023-02-28T06:05:17;0.60;71.20
71668;DHT22;59504;54.806;9.640;2023-02-28T06:07:37;0.60;71.20
71668;DHT22;59504;54.806;9.640;2023-02-28T06:09:56;0.50;71.20
71668;DHT22;59504;54.806;9.640;2023-02-28T06:12:15;0.50;71.20
71668;DHT22;59504;54.806;9.640;2023-02-28T06:14:34;0.50;71.40
71668;DHT22;59504;54.806;9.640;2023-02-28T06:16:53;0.50;71.40
71668;DHT22;59504;54.806;9.640;2023-02-28T06:19:13;0.50;71.50
71668;DHT22;59504;54.806;9.640;2023-02-28T06:21:32;0.40;71.50
71668;DHT22;59504;54.806;9.640;2023-02-28T06:23:51;0.40;71.60
71668;DHT22;59504;54.806;9.640;2023-02-28T06:26:11;0.40;71.70
71668;DHT22;59504;54.806;9.640;2023-02-28T06:28:30;0.40;71.90
71668;DHT22;59504;54.806;9.640;2023-02-28T06:30:49;0.40;71.90
71668;DHT22;59504;54.806;9.640;2023-02-28T06:33:08;0.40;71.90
71668;DHT22;59504;54.806;9.640;2023-02-28T06:35:27;0.40;71.90
71668;DHT22;59504;54.806;9.640;2023-02-28T06:37:46;0.40;72.00
71668;DHT22;59504;54.806;9.640;2023-02-28T06:40:06;0.40;71.80
71668;DHT22;59504;54.806;9.640;2023-02-28T06:42:26;0.40;71.70
71668;DHT22;59504;54.806;9.640;2023-02-28T06:44:47;0.30;71.70
71668;DHT22;59504;54.806;9.640;2023-02-28T06:47:06;0.30;71.70
71668;DHT22;59504;54.806;9.640;2023-02-28T06:49:25;0.30;71.80
71668;DHT22;59504;54.806;9.640;2023-02-28T06:51:45;0.30;71.90
71668;DHT22;59504;54.806;9.640;2023-02-28T06:54:05;0.30;72.10
71668;DHT22;59504;54.806;9.640;2023-02-28T06:56:24;0.30;72.10
71668;DHT22;59504;54.806;9.640;2023-02-28T06:58:48;0.30;72.20
71668;DHT22;59504;54.806;9.640;2023-02-28T07:01:08;0.30;72.20
71668;DHT22;59504;54.806;9.640;2023-02-28T07:03:27;0.30;73.10
71668;DHT22;59504;54.806;9.640;2023-02-28T07:05:46;0.30;72.40
71668;DHT22;59504;54.806;9.640;2023-02-28T07:08:05;0.30;72.40
71668;DHT22;59504;54.806;9.640;2023-02-28T07:10:25;0.40;72.60
71668;DHT22;59504;54.806;9.640;2023-02-28T07:12:44;0.40;73.00
71668;DHT22;59504;54.806;9.640;2023-02-28T07:15:04;0.40;72.80
71668;DHT22;59504;54.806;9.640;2023-02-28T07:17:24;0.40;72.80
71668;DHT22;59504;54.806;9.640;2023-02-28T07:19:43;0.40;72.80
71668;DHT22;59504;54.806;9.640;2023-02-28T07:22:02;0.40;72.90
71668;DHT22;59504;54.806;9.640;2023-02-28T07:24:21;0.50;73.00
71668;DHT22;59504;54.806;9.640;2023-02-28T07:26:42;0.50;73.20
71668;DHT22;59504;54.806;9.640;2023-02-28T07:29:01;0.60;73.30
71668;DHT22;59504;54.806;9.640;2023-02-28T07:31:21;0.60;73.40
71668;DHT22;59504;54.806;9.640;2023-02-28T07:33:40;0.60;73.50
71668;DHT22;59504;54.806;9.640;2023-02-28T07:36:05;0.70;73.60
71668;DHT22;59504;54.806;9.640;2023-02-28T07:38:25;0.70;73.90
71668;DHT22;59504;54.806;9.640;2023-02-28T07:40:44;0.80;74.20
71668;DHT22;59504;54.806;9.640;2023-02-28T07:43:03;0.80;74.40
71668;DHT22;59504;54.806;9.640;2023-02-28T07:45:22;0.90;74.60
71668;DHT22;59504;54.806;9.640;2023-02-28T07:47:43;1.00;74.80
71668;DHT22;59504;54.806;9.640;2023-02-28T07:50:02;1.00;74.80
71668;DHT22;59504;54.806;9.640;2023-02-28T07:52:28;1.10;74.90
71668;DHT22;59504;54.806;9.640;2023-02-28T07:54:47;1.20;75.10
71668;DHT22;59504;54.806;9.640;2023-02-28T07:57:06;1.30;75.30
71668;DHT22;59504;54.806;9.640;2023-02-28T07:59:25;1.30;75.30
71668;DHT22;59504;54.806;9.640;2023-02-28T08:01:44;1.40;75.50
71668;DHT22;59504;54.806;9.640;2023-02-28T08:04:03;1.50;75.60
71668;DHT22;59504;54.806;9.640;2023-02-28T08:06:24;1.60;75.70
71668;DHT22;59504;54.806;9.640;2023-02-28T08:08:45;1.60;75.80
71668;DHT22;59504;54.806;9.640;2023-02-28T08:11:05;1.70;75.90
71668;DHT22;59504;54.806;9.640;2023-02-28T08:13:24;1.80;76.10
71668;DHT22;59504;54.806;9.640;2023-02-28T08:15:43;1.90;76.20
71668;DHT22;59504;54.806;9.640;2023-02-28T08:18:04;1.90;76.20
71668;DHT22;59504;54.806;9.640;2023-02-28T08:20:24;2.00;76.20
71668;DHT22;59504;54.806;9.640;2023-02-28T08:22:44;2.10;76.30
71668;DHT22;59504;54.806;9.640;2023-02-28T08:25:04;2.20;76.30
71668;DHT22;59504;54.806;9.640;2023-02-28T08:27:23;2.30;76.40
71668;DHT22;59504;54.806;9.640;2023-02-28T08:29:42;2.30;76.50
71668;DHT22;59504;54.806;9.640;2023-02-28T08:32:01;2.40;76.80
71668;DHT22;59504;54.806;9.640;2023-02-28T08:34:20;2.50;77.10
71668;DHT22;59504;54.806;9.640;2023-02-28T08:36:40;2.60;77.30
71668;DHT22;59504;54.806;9.640;2023-02-28T08:38:59;2.70;77.40
71668;DHT22;59504;54.806;9.640;2023-02-28T08:41:19;2.70;77.50
71668;DHT22;59504;54.806;9.640;2023-02-28T08:43:38;2.80;77.60
71668;DHT22;59504;54.806;9.640;2023-02-28T08:45:58;2.90;77.70
71668;DHT22;59504;54.806;9.640;2023-02-28T08:48:18;3.00;77.80
71668;DHT22;59504;54.806;9.640;2023-02-28T08:50:37;3.10;78.00
71668;DHT22;59504;54.806;9.640;2023-02-28T08:52:56;3.20;78.00
71668;DHT22;59504;54.806;9.640;2023-02-28T08:55:15;3.30;78.00
71668;DHT22;59504;54.806;9.640;2023-02-28T08:57:35;3.30;78.10
71668;DHT22;59504;54.806;9.640;2023-02-28T08:59:54;3.50;78.10
71668;DHT22;59504;54.806;9.640;2023-02-28T09:02:14;3.50;78.00
71668;DHT22;59504;54.806;9.640;2023-02-28T09:04:33;3.60;78.00
71668;DHT22;59504;54.806;9.640;2023-02-28T09:06:53;3.70;78.00
71668;DHT22;59504;54.806;9.640;2023-02-28T09:09:12;3.70;77.90
71668;DHT22;59504;54.806;9.640;2023-02-28T09:11:31;3.80;78.00
71668;DHT22;59504;54.806;9.640;2023-02-28T09:13:50;3.90;77.90
71668;DHT22;59504;54.806;9.640;2023-02-28T09:16:12;4.00;78.00
71668;DHT22;59504;54.806;9.640;2023-02-28T09:18:37;4.00;78.00
71668;DHT22;59504;54.806;9.640;2023-02-28T09:20:56;4.10;78.10
71668;DHT22;59504;54.806;9.640;2023-02-28T09:23:16;4.20;78.10
71668;DHT22;59504;54.806;9.640;2023-02-28T09:25:36;4.30;78.20
71668;DHT22;59504;54.806;9.640;2023-02-28T09:27:56;4.30;78.20
71668;DHT22;59504;54.806;9.640;2023-02-28T09:30:15;4.40;78.50
71668;DHT22;59504;54.806;9.640;2023-02-28T09:32:35;4.50;78.30
71668;DHT22;59504;54.806;9.640;2023-02-28T09:34:54;4.60;78.30
71668;DHT22;59504;54.806;9.640;2023-02-28T09:37:13;4.70;78.00
71668;DHT22;59504;54.806;9.640;2023-02-28T09:39:32;4.80;78.00
71668;DHT22;59504;54.806;9.640;2023-02-28T09:41:52;4.90;77.70
71668;DHT22;59504;54.806;9.640;2023-02-28T09:44:18;4.90;77.70
71668;DHT22;59504;54.806;9.640;2023-02-28T09:46:42;5.00;77.10
71668;DHT22;59504;54.806;9.640;2023-02-28T09:49:16;5.10;78.00
71668;DHT22;59504;54.806;9.640;2023-02-28T09:54:03;5.30;76.50
71668;DHT22;59504;54.806;9.640;2023-02-28T09:56:28;5.30;76.60
71668;DHT22;59504;54.806;9.640;2023-02-28T09:58:55;5.40;76.50
71668;DHT22;59504;54.806;9.640;2023-02-28T10:01:35;5.50;76.20
71668;DHT22;59504;54.806;9.640;2023-02-28T10:06:47;5.70;75.90
71668;DHT22;59504;54.806;9.640;2023-02-28T10:09:13;5.80;75.70
71668;DHT22;59504;54.806;9.640;2023-02-28T10:11:36;5.90;75.40
71668;DHT22;59504;54.806;9.640;2023-02-28T10:16:40;6.00;74.90
71668;DHT22;59504;54.806;9.640;2023-02-28T10:19:16;6.10;74.40
71668;DHT22;59504;54.806;9.640;2023-02-28T10:21:42;6.20;74.00
71668;DHT22;59504;54.806;9.640;2023-02-28T10:24:23;6.30;73.80
71668;DHT22;59504;54.806;9.640;2023-02-28T10:26:48;6.30;73.50
71668;DHT22;59504;54.806;9.640;2023-02-28T10:29:08;6.40;73.10
71668;DHT22;59504;54.806;9.640;2023-02-28T10:31:28;6.50;72.80
71668;DHT22;59504;54.806;9.640;2023-02-28T10:33:48;6.60;72.40
71668;DHT22;59504;54.806;9.640;2023-02-28T10:36:13;6.60;72.20
71668;DHT22;59504;54.806;9.640;2023-02-28T10:38:35;6.70;72.00
71668;DHT22;59504;54.806;9.640;2023-02-28T10:43:47;6.80;70.70
71668;DHT22;59504;54.806;9.640;2023-02-28T10:46:15;6.90;70.70
71668;DHT22;59504;54.806;9.640;2023-02-28T10:48:47;7.00;70.20
71668;DHT22;59504;54.806;9.640;2023-02-28T10:51:11;7.00;69.90
71668;DHT22;59504;54.806;9.640;2023-02-28T10:53:35;7.10;69.40
71668;DHT22;59504;54.806;9.640;2023-02-28T10:58:25;7.20;69.00
71668;DHT22;59504;54.806;9.640;2023-02-28T11:00:46;7.20;67.20
71668;DHT22;59504;54.806;9.640;2023-02-28T11:03:29;7.30;67.30
71668;DHT22;59504;54.806;9.640;2023-02-28T11:05:48;7.30;66.90
71668;DHT22;59504;54.806;9.640;2023-02-28T11:08:15;7.40;67.10
71668;DHT22;59504;54.806;9.640;2023-02-28T11:10:36;7.40;67.00
71668;DHT22;59504;54.806;9.640;2023-02-28T11:12:56;7.50;66.80
71668;DHT22;59504;54.806;9.640;2023-02-28T11:15:21;7.50;66.00
71668;DHT22;59504;54.806;9.640;2023-02-28T11:17:42;7.60;66.90
71668;DHT22;59504;54.806;9.640;2023-02-28T11:20:05;7.60;66.20
71668;DHT22;59504;54.806;9.640;2023-02-28T11:22:28;7.70;65.60
71668;DHT22;59504;54.806;9.640;2023-02-28T11:24:51;7.80;65.90
71668;DHT22;59504;54.806;9.640;2023-02-28T11:29:50;7.90;64.70
71668;DHT22;59504;54.806;9.640;2023-02-28T11:32:19;7.90;64.70
71668;DHT22;59504;54.806;9.640;2023-02-28T11:34:40;8.00;64.60
71668;DHT22;59504;54.806;9.640;2023-02-28T11:37:01;8.00;65.10
71668;DHT22;59504;54.806;9.640;2023-02-28T11:39:33;8.00;63.30
71668;DHT22;59504;54.806;9.640;2023-02-28T11:51:34;8.10;62.90
71668;DHT22;59504;54.806;9.640;2023-02-28T11:56:48;8.20;62.80
71668;DHT22;59504;54.806;9.640;2023-02-28T12:21:04;8.60;62.20
71668;DHT22;59504;54.806;9.640;2023-02-28T12:26:35;8.60;61.90
71668;DHT22;59504;54.806;9.640;2023-02-28T12:32:33;8.70;61.80
71668;DHT22;59504;54.806;9.640;2023-02-28T12:34:52;8.80;61.70
71668;DHT22;59504;54.806;9.640;2023-02-28T12:37:38;8.80;61.40
71668;DHT22;59504;54.806;9.640;2023-02-28T12:40:11;8.80;61.10
71668;DHT22;59504;54.806;9.640;2023-02-28T12:42:34;8.90;61.20
71668;DHT22;59504;54.806;9.640;2023-02-28T12:45:03;8.90;61.20
71668;DHT22;59504;54.806;9.640;2023-02-28T12:47:26;8.90;60.60
71668;DHT22;59504;54.806;9.640;2023-02-28T12:52:09;9.00;59.80
71668;DHT22;59504;54.806;9.640;2023-02-28T12:54:35;9.00;59.60
71668;DHT22;59504;54.806;9.640;2023-02-28T12:57:06;9.00;60.10
71668;DHT22;59504;54.806;9.640;2023-02-28T12:59:37;9.00;59.90
71668;DHT22;59504;54.806;9.640;2023-02-28T13:08:59;9.10;59.90
71668;DHT22;59504;54.806;9.640;2023-02-28T13:11:01;9.10;59.90
71668;DHT22;59504;54.806;9.640;2023-02-28T13:13:03;9.20;60.00
71668;DHT22;59504;54.806;9.640;2023-02-28T13:15:19;9.20;59.80
71668;DHT22;59504;54.806;9.640;2023-02-28T13:17:24;9.20;59.50
71668;DHT22;59504;54.806;9.640;2023-02-28T13:19:29;9.20;59.60
71668;DHT22;59504;54.806;9.640;2023-02-28T13:21:32;9.20;59.40
71668;DHT22;59504;54.806;9.640;2023-02-28T13:25:51;9.20;59.00
71668;DHT22;59504;54.806;9.640;2023-02-28T13:27:54;9.30;59.00
71668;DHT22;59504;54.806;9.640;2023-02-28T13:29:56;9.30;59.00
71668;DHT22;59504;54.806;9.640;2023-02-28T13:34:13;9.30;58.90
71668;DHT22;59504;54.806;9.640;2023-02-28T13:38:25;9.40;59.00
71668;DHT22;59504;54.806;9.640;2023-02-28T13:40:33;9.30;58.60
71668;DHT22;59504;54.806;9.640;2023-02-28T13:42:48;9.30;58.60
71668;DHT22;59504;54.806;9.640;2023-02-28T13:51:44;9.30;58.10
71668;DHT22;59504;54.806;9.640;2023-02-28T13:54:01;9.30;58.20
71668;DHT22;59504;54.806;9.640;2023-02-28T13:56:34;9.20;58.20
71668;DHT22;59504;54.806;9.640;2023-02-28T13:58:51;9.20;58.40
71668;DHT22;59504;54.806;9.640;2023-02-28T14:06:23;9.20;58.80
71668;DHT22;59504;54.806;9.640;2023-02-28T14:08:55;9.20;58.90
71668;DHT22;59504;54.806;9.640;2023-02-28T14:11:26;9.20;59.00
71668;DHT22;59504;54.806;9.640;2023-02-28T14:13:47;9.20;58.80
71668;DHT22;59504;54.806;9.640;2023-02-28T14:16:08;9.20;58.90
71668;DHT22;59504;54.806;9.640;2023-02-28T14:18:33;9.20;58.90
71668;DHT22;59504;54.806;9.640;2023-02-28T14:21:27;9.20;58.70
71668;DHT22;59504;54.806;9.640;2023-02-28T14:24:02;9.20;58.20
71668;DHT22;59504;54.806;9.640;2023-02-28T14:26:56;9.20;58.30
71668;DHT22;59504;54.806;9.640;2023-02-28T14:32:01;9.20;58.70
71668;DHT22;59504;54.806;9.640;2023-02-28T14:34:35;9.20;58.80
71668;DHT22;59504;54.806;9.640;2023-02-28T14:37:00;9.20;58.60
71668;DHT22;59504;54.806;9.640;2023-02-28T14:39:26;9.20;58.70
71668;DHT22;59504;54.806;9.640;2023-02-28T14:41:47;9.20;58.70
71668;DHT22;59504;54.806;9.640;2023-02-28T14:46:40;9.20;58.60
71668;DHT22;59504;54.806;9.640;2023-02-28T14:49:04;9.10;58.60
71668;DHT22;59504;54.806;9.640;2023-02-28T14:51:26;9.10;58.60
71668;DHT22;59504;54.806;9.640;2023-02-28T14:53:56;9.10;58.60
71668;DHT22;59504;54.806;9.640;2023-02-28T14:56:38;9.10;58.60
71668;DHT22;59504;54.806;9.640;2023-02-28T14:58:59;9.00;58.70
71668;DHT22;59504;54.806;9.640;2023-02-28T15:01:22;9.00;59.00
71668;DHT22;59504;54.806;9.640;2023-02-28T15:03:43;9.00;59.00
71668;DHT22;59504;54.806;9.640;2023-02-28T15:06:12;9.00;59.10
71668;DHT22;59504;54.806;9.640;2023-02-28T15:08:33;8.90;59.20
71668;DHT22;59504;54.806;9.640;2023-02-28T15:13:22;8.90;59.60
71668;DHT22;59504;54.806;9.640;2023-02-28T15:16:02;8.90;59.70
71668;DHT22;59504;54.806;9.640;2023-02-28T15:18:26;9.00;59.90
71668;DHT22;59504;54.806;9.640;2023-02-28T15:20:48;8.90;59.80
71668;DHT22;59504;54.806;9.640;2023-02-28T15:23:09;8.80;59.80
71668;DHT22;59504;54.806;9.640;2023-02-28T15:25:29;8.80;59.80
71668;DHT22;59504;54.806;9.640;2023-02-28T15:27:51;8.80;59.80
71668;DHT22;59504;54.806;9.640;2023-02-28T15:30:18;8.80;59.80
71668;DHT22;59504;54.806;9.640;2023-02-28T15:32:38;8.80;59.80
71668;DHT22;59504;54.806;9.640;2023-02-28T15:35:16;8.80;59.80
71668;DHT22;59504;54.806;9.640;2023-02-28T15:37:57;8.80;59.90
71668;DHT22;59504;54.806;9.640;2023-02-28T15:40:28;8.80;59.90
71668;DHT22;59504;54.806;9.640;2023-02-28T15:43:22;8.70;59.90
71668;DHT22;59504;54.806;9.640;2023-02-28T15:45:50;8.70;60.00
71668;DHT22;59504;54.806;9.640;2023-02-28T15:48:20;8.70;60.00
71668;DHT22;59504;54.806;9.640;2023-02-28T15:50:40;8.70;60.10
71668;DHT22;59504;54.806;9.640;2023-02-28T15:53:00;8.60;60.00
71668;DHT22;59504;54.806;9.640;2023-02-28T15:55:27;8.60;60.00
71668;DHT22;59504;54.806;9.640;2023-02-28T15:57:50;8.60;60.00
71668;DHT22;59504;54.806;9.640;2023-02-28T16:00:13;8.50;60.40
71668;DHT22;59504;54.806;9.640;2023-02-28T16:02:35;8.50;60.20
71668;DHT22;59504;54.806;9.640;2023-02-28T16:05:12;8.50;60.20
71668;DHT22;59504;54.806;9.640;2023-02-28T16:07:38;8.40;60.30
71668;DHT22;59504;54.806;9.640;2023-02-28T16:09:57;8.40;60.30
71668;DHT22;59504;54.806;9.640;2023-02-28T16:12:17;8.30;60.30
71668;DHT22;59504;54.806;9.640;2023-02-28T16:14:36;8.30;60.30
71668;DHT22;59504;54.806;9.640;2023-02-28T16:17:06;8.30;60.40
71668;DHT22;59504;54.806;9.640;2023-02-28T16:19:27;8.20;60.40
71668;DHT22;59504;54.806;9.640;2023-02-28T16:21:47;8.20;60.50
71668;DHT22;59504;54.806;9.640;2023-02-28T16:24:07;8.10;60.50
71668;DHT22;59504;54.806;9.640;2023-02-28T16:26:26;8.10;60.50
71668;DHT22;59504;54.806;9.640;2023-02-28T16:28:47;8.00;60.50
71668;DHT22;59504;54.806;9.640;2023-02-28T16:31:07;8.00;60.90
71668;DHT22;59504;54.806;9.640;2023-02-28T16:33:26;7.90;60.70
71668;DHT22;59504;54.806;9.640;2023-02-28T16:35:45;7.90;60.70
71668;DHT22;59504;54.806;9.640;2023-02-28T16:38:04;7.80;61.50
71668;DHT22;59504;54.806;9.640;2023-02-28T16:40:25;7.70;60.70
71668;DHT22;59504;54.806;9.640;2023-02-28T16:42:49;7.70;61.00
71668;DHT22;59504;54.806;9.640;2023-02-28T16:45:17;7.70;61.00
71668;DHT22;59504;54.806;9.640;2023-02-28T16:47:38;7.60;61.10
71668;DHT22;59504;54.806;9.640;2023-02-28T16:49:57;7.50;61.10
71668;DHT22;59504;54.806;9.640;2023-02-28T16:52:18;7.50;61.20
71668;DHT22;59504;54.806;9.640;2023-02-28T16:54:38;7.40;61.20
71668;DHT22;59504;54.806;9.640;2023-02-28T16:56:57;7.40;61.40
71668;DHT22;59504;54.806;9.640;2023-02-28T16:59:22;7.30;61.50
71668;DHT22;59504;54.806;9.640;2023-02-28T17:01:42;7.20;61.60
71668;DHT22;59504;54.806;9.640;2023-02-28T17:04:01;7.20;61.70
71668;DHT22;59504;54.806;9.640;2023-02-28T17:06:24;7.10;61.60
71668;DHT22;59504;54.806;9.640;2023-02-28T17:08:44;7.10;61.70
71668;DHT22;59504;54.806;9.640;2023-02-28T17:11:03;7.10;61.80
71668;DHT22;59504;54.806;9.640;2023-02-28T17:13:22;7.00;61.90